Time;durP1;ratioP1;P1;durP2;ratioP2;P2;SDS_P1;SDS_P2;PMS_P1;PMS_P2;Temp;Humidity;BMP_temperature;BMP_pressure;BME280_temperature;BME280_humidity;BME280_pressure;Samples;Min_cycle;Max_cycle;Signal;HPM_P1;HPM_P2
2023/01/23 00:01:21;;;;;;;0.93;0.60;;;;;;;15.73;46.09;95528.38;4990755;28;20454;-69
2023/01/23 00:03:48;;;;;;;0.20;0.20;;;;;;;15.72;46.09;95518.06;4991299;28;21013;-64
2023/01/23 00:06:15;;;;;;;0.40;0.20;;;;;;;15.70;45.75;95520.19;4990776;28;20474;-70
2023/01/23 00:08:44;;;;;;;0.33;0.33;;;;;;;15.65;45.65;95514.94;4990599;28;20533;-68
2023/01/23 00:11:17;;;;;;;0.00;0.00;;;;;;;15.43;45.88;95520.59;4990907;28;20456;-66
2023/01/23 00:13:45;;;;;;;0.10;0.10;;;;;;;15.32;45.83;95528.75;4991273;28;20456;-68
2023/01/23 00:16:15;;;;;;;0.23;0.23;;;;;;;15.10;46.36;95519.34;4990580;28;20531;-71
2023/01/23 00:18:42;;;;;;;0.57;0.57;;;;;;;15.00;46.84;95505.34;4991882;28;20442;-60
2023/01/23 00:21:12;;;;;;;2.00;1.40;;;;;;;15.36;45.51;95527.19;4994609;28;20450;-65
2023/01/23 00:23:45;;;;;;;0.10;0.10;;;;;;;15.76;45.22;95519.09;4991025;28;20500;-67
2023/01/23 00:26:14;;;;;;;0.13;0.13;;;;;;;15.41;45.60;95527.19;4990606;28;20524;-69
2023/01/23 00:28:44;;;;;;;0.33;0.33;;;;;;;15.61;45.24;95525.25;4989855;28;20448;-69
2023/01/23 00:31:24;;;;;;;0.20;0.20;;;;;;;15.54;45.53;95523.97;4999716;28;20473;-69
2023/01/23 00:33:56;;;;;;;0.13;0.13;;;;;;;15.46;45.53;95529.78;4980747;28;20441;-63
2023/01/23 00:36:26;;;;;;;0.10;0.10;;;;;;;15.51;45.54;95524.50;4991798;28;20540;-62
2023/01/23 00:38:54;;;;;;;0.30;0.30;;;;;;;15.62;45.92;95524.19;4990264;28;20488;-68
2023/01/23 00:41:21;;;;;;;0.03;0.03;;;;;;;15.43;46.01;95530.34;4989844;28;20917;-68
2023/01/23 00:43:50;;;;;;;2.70;1.00;;;;;;;15.35;45.65;95507.88;4990653;28;21011;-63
2023/01/23 00:46:21;;;;;;;0.00;0.00;;;;;;;15.56;46.06;95535.06;4988595;28;20846;-64
2023/01/23 00:48:48;;;;;;;1.00;1.00;;;;;;;15.25;46.45;95535.13;4989248;28;20438;-64
2023/01/23 00:51:17;;;;;;;0.77;0.77;;;;;;;15.34;46.41;95545.13;4987649;28;20449;-70
2023/01/23 00:53:44;;;;;;;0.30;0.30;;;;;;;15.45;45.48;95539.59;4988756;28;20962;-66
2023/01/23 00:56:11;;;;;;;0.87;0.50;;;;;;;15.64;45.64;95537.13;4989411;28;20454;-65
2023/01/23 00:58:40;;;;;;;0.13;0.13;;;;;;;15.50;45.97;95541.41;4989822;28;20501;-68
2023/01/23 01:01:12;;;;;;;0.30;0.30;;;;;;;15.67;45.66;95536.59;4989520;28;20536;-64
2023/01/23 01:03:39;;;;;;;0.53;0.53;;;;;;;15.60;45.62;95530.81;4988385;28;20446;-68
2023/01/23 01:06:07;;;;;;;0.50;0.50;;;;;;;15.69;45.07;95534.47;4988582;28;20571;-62
2023/01/23 01:08:34;;;;;;;0.10;0.10;;;;;;;15.62;45.25;95534.75;4988719;28;21103;-62
2023/01/23 01:11:01;;;;;;;1.00;1.00;;;;;;;14.94;46.80;95536.25;4990164;28;20916;-68
2023/01/23 01:13:30;;;;;;;0.03;0.03;;;;;;;15.27;46.23;95537.50;4989828;28;20863;-71
2023/01/23 01:16:00;;;;;;;2.33;1.20;;;;;;;15.15;46.60;95545.72;4989117;28;20448;-67
2023/01/23 01:18:28;;;;;;;0.43;0.43;;;;;;;15.30;46.31;95546.72;4976297;28;20488;-66
2023/01/23 01:20:56;;;;;;;3.10;1.23;;;;;;;15.00;46.34;95548.38;4989323;28;20438;-65
2023/01/23 01:23:23;;;;;;;0.07;0.07;;;;;;;15.27;46.92;95552.56;4988273;28;21000;-71
2023/01/23 01:25:50;;;;;;;0.50;0.50;;;;;;;14.99;47.07;95557.38;4989758;28;20458;-68
2023/01/23 01:28:17;;;;;;;0.73;0.47;;;;;;;15.11;46.83;95554.41;4992488;28;20504;-71
2023/01/23 01:30:46;;;;;;;1.07;1.07;;;;;;;15.20;46.59;95560.72;4993644;28;21003;-71
2023/01/23 01:33:13;;;;;;;1.13;0.97;;;;;;;15.31;47.00;95566.81;4992677;28;20441;-71
2023/01/23 01:35:40;;;;;;;0.20;0.20;;;;;;;15.37;46.93;95563.06;4997979;28;20453;-67
2023/01/23 01:38:08;;;;;;;1.27;0.53;;;;;;;15.45;46.60;95573.13;4998761;28;20449;-67
2023/01/23 01:40:35;;;;;;;0.07;0.07;;;;;;;15.04;47.46;95581.09;4993558;28;20469;-68
2023/01/23 01:43:06;;;;;;;0.30;0.30;;;;;;;15.25;47.16;95566.78;4993797;28;20442;-69
2023/01/23 01:46:13;;;;;;;0.00;0.00;;;;;;;15.49;46.51;95582.88;4993483;28;20815;-71
2023/01/23 01:48:43;;;;;;;0.23;0.23;;;;;;;14.96;46.99;95568.44;4982562;28;21023;-64
2023/01/23 01:51:14;;;;;;;1.07;1.03;;;;;;;14.84;47.68;95573.19;4989989;28;20452;-66
2023/01/23 01:53:45;;;;;;;0.10;0.10;;;;;;;14.85;47.64;95566.84;4991509;28;20457;-72
2023/01/23 01:56:13;;;;;;;0.20;0.20;;;;;;;14.98;47.86;95574.25;4993154;28;20449;-64
2023/01/23 01:58:43;;;;;;;0.00;0.00;;;;;;;14.68;47.92;95574.28;4979520;28;20446;-66
2023/01/23 02:01:10;;;;;;;0.10;0.10;;;;;;;15.04;47.43;95570.53;4971867;28;20449;-71
2023/01/23 02:03:38;;;;;;;4.43;3.10;;;;;;;14.80;47.89;95566.88;4986913;28;20508;-64
2023/01/23 02:06:06;;;;;;;0.00;0.00;;;;;;;14.94;47.68;95569.78;4992769;28;20931;-65
2023/01/23 02:09:10;;;;;;;0.00;0.00;;;;;;;15.25;47.07;95569.44;4993324;28;20473;-68
2023/01/23 02:11:37;;;;;;;0.20;0.20;;;;;;;15.11;47.57;95568.41;4991710;28;20454;-64
2023/01/23 02:14:04;;;;;;;1.83;0.17;;;;;;;14.99;48.51;95577.69;4991743;28;20440;-65
2023/01/23 02:16:38;;;;;;;0.50;0.47;;;;;;;15.30;47.78;95570.50;4991408;28;20442;-71
2023/01/23 02:19:40;;;;;;;0.00;0.00;;;;;;;15.32;47.58;95576.28;4992455;28;20532;-61
2023/01/23 02:22:42;;;;;;;0.30;0.30;;;;;;;14.30;49.86;95590.59;4993577;28;21012;-63
2023/01/23 02:25:36;;;;;;;0.57;0.57;;;;;;;14.50;49.43;95587.97;4992753;28;20484;-71
2023/01/23 02:28:03;;;;;;;2.73;1.10;;;;;;;14.32;49.70;95569.22;4993119;28;20477;-61
2023/01/23 02:30:36;;;;;;;4.07;1.00;;;;;;;14.18;50.67;95587.34;4992786;28;20802;-65
2023/01/23 02:33:29;;;;;;;0.27;0.27;;;;;;;14.81;49.31;95572.94;4994354;28;20476;-67
2023/01/23 02:36:01;;;;;;;0.83;0.60;;;;;;;14.48;50.08;95563.72;4978127;28;21065;-71
2023/01/23 02:38:43;;;;;;;0.20;0.20;;;;;;;14.11;50.47;95578.91;4979245;28;20467;-68
2023/01/23 02:41:13;;;;;;;0.30;0.30;;;;;;;14.53;49.92;95586.66;4989994;28;20449;-67
2023/01/23 02:43:41;;;;;;;0.30;0.30;;;;;;;14.45;50.50;95587.94;4991403;28;20460;-67
2023/01/23 02:46:11;;;;;;;3.53;0.87;;;;;;;14.00;51.14;95579.94;4990695;28;20537;-64
2023/01/23 02:48:43;;;;;;;0.40;0.40;;;;;;;14.50;50.08;95580.06;4982027;28;20478;-65
2023/01/23 02:51:10;;;;;;;0.00;0.00;;;;;;;14.38;49.59;95592.69;4986987;28;20451;-67
2023/01/23 02:53:38;;;;;;;0.30;0.30;;;;;;;14.30;50.36;95593.22;4983677;28;20456;-65
2023/01/23 02:56:05;;;;;;;0.00;0.00;;;;;;;14.74;49.05;95586.41;4991771;28;20450;-68
2023/01/23 03:01:18;;;;;;;0.80;0.80;;;;;;;14.13;50.19;95587.34;4992128;28;20439;-65
2023/01/23 03:03:45;;;;;;;0.23;0.23;;;;;;;14.67;49.24;95575.31;5002450;28;20961;-64
2023/01/23 03:06:12;;;;;;;0.07;0.07;;;;;;;14.48;49.49;95578.75;4992581;28;20520;-65
2023/01/23 03:08:46;;;;;;;0.00;0.00;;;;;;;14.89;47.63;95589.03;4993929;28;20453;-61
2023/01/23 03:11:15;;;;;;;2.20;0.97;;;;;;;14.75;48.70;95580.06;5001924;28;20492;-61
2023/01/23 03:13:44;;;;;;;0.00;0.00;;;;;;;14.63;48.77;95584.84;5003141;28;20464;-64
2023/01/23 03:16:11;;;;;;;0.10;0.10;;;;;;;14.59;49.32;95583.75;5000176;28;20446;-63
2023/01/23 03:18:38;;;;;;;0.00;0.00;;;;;;;14.73;49.05;95579.53;4994448;28;20449;-65
2023/01/23 03:21:20;;;;;;;0.20;0.20;;;;;;;14.59;48.35;95599.59;4990547;28;20450;-65
2023/01/23 03:23:48;;;;;;;0.10;0.10;;;;;;;14.64;48.48;95591.66;4990390;28;20450;-69
2023/01/23 03:26:18;;;;;;;0.00;0.00;;;;;;;14.38;49.04;95592.69;4990871;28;20944;-69
2023/01/23 03:31:32;;;;;;;0.40;0.40;;;;;;;14.96;47.53;95583.50;4976171;28;20482;-68
2023/01/23 03:33:59;;;;;;;0.60;0.60;;;;;;;14.66;47.87;95583.50;4980870;28;20513;-66
2023/01/23 03:36:27;;;;;;;0.00;0.00;;;;;;;14.99;47.97;95569.75;4986227;28;20508;-63
2023/01/23 03:41:40;;;;;;;0.20;0.20;;;;;;;14.69;48.33;95575.84;4971161;28;20519;-64
2023/01/23 03:44:08;;;;;;;0.27;0.27;;;;;;;14.88;48.29;95576.91;4970486;28;20460;-70
2023/01/23 03:46:35;;;;;;;0.10;0.10;;;;;;;14.31;49.17;95586.88;4970143;28;20881;-64
2023/01/23 03:49:02;;;;;;;0.00;0.00;;;;;;;14.50;47.68;95584.53;4970299;28;20524;-62
2023/01/23 03:51:29;;;;;;;0.50;0.50;;;;;;;14.38;48.68;95579.50;4969086;28;20451;-68
2023/01/23 03:53:55;;;;;;;0.67;0.67;;;;;;;14.06;49.01;95578.91;4970217;28;20781;-64
2023/01/23 03:56:24;;;;;;;0.00;0.00;;;;;;;14.14;49.29;95586.31;4989625;28;20549;-66
2023/01/23 03:58:51;;;;;;;0.80;0.63;;;;;;;14.21;48.95;95592.91;4977094;28;20442;-66
2023/01/23 04:01:20;;;;;;;0.27;0.27;;;;;;;14.21;49.18;95586.84;4981514;28;20459;-64
2023/01/23 04:03:47;;;;;;;0.10;0.10;;;;;;;14.51;48.37;95581.63;4986490;28;20442;-68
2023/01/23 04:06:14;;;;;;;0.03;0.03;;;;;;;14.29;49.06;95593.50;4988544;28;20457;-67
2023/01/23 04:08:43;;;;;;;0.20;0.20;;;;;;;14.79;47.70;95589.03;4989404;28;20992;-68
2023/01/23 04:11:11;;;;;;;0.00;0.00;;;;;;;14.12;48.95;95594.47;4979897;28;20474;-66
2023/01/23 04:13:38;;;;;;;2.00;0.50;;;;;;;14.19;49.00;95599.50;4986484;28;20505;-69
2023/01/23 04:16:06;;;;;;;0.00;0.00;;;;;;;13.82;49.58;95604.91;4981106;28;21075;-64
2023/01/23 04:18:34;;;;;;;0.00;0.00;;;;;;;14.07;48.97;95604.19;4989410;28;20501;-70
2023/01/23 04:21:01;;;;;;;0.10;0.10;;;;;;;14.17;48.70;95594.50;4989178;28;20445;-67
2023/01/23 04:23:31;;;;;;;0.13;0.13;;;;;;;14.12;49.02;95598.97;4990367;28;20449;-65
2023/01/23 04:25:57;;;;;;;0.07;0.07;;;;;;;14.34;48.42;95599.56;4989550;28;20480;-70
2023/01/23 04:28:26;;;;;;;0.30;0.30;;;;;;;13.79;49.38;95599.38;4989921;28;20508;-68
2023/01/23 04:30:54;;;;;;;0.30;0.30;;;;;;;14.29;47.97;95611.94;4979248;28;20489;-64
2023/01/23 04:33:27;;;;;;;0.50;0.50;;;;;;;13.79;49.14;95615.97;4970364;28;20449;-68
2023/01/23 04:35:55;;;;;;;0.00;0.00;;;;;;;14.01;48.43;95610.53;4987201;28;20527;-60
2023/01/23 04:38:27;;;;;;;0.13;0.13;;;;;;;14.15;48.51;95611.59;4976760;28;20446;-67
2023/01/23 04:40:55;;;;;;;0.00;0.00;;;;;;;14.31;47.94;95607.97;4973743;28;20470;-60
2023/01/23 04:43:22;;;;;;;0.20;0.20;;;;;;;14.40;48.12;95616.97;4977407;28;20442;-62
2023/01/23 04:45:52;;;;;;;0.07;0.07;;;;;;;13.57;48.91;95611.91;4993398;28;20498;-64
2023/01/23 04:48:38;;;;;;;0.00;0.00;;;;;;;14.14;48.22;95617.94;4989923;28;20499;-61
2023/01/23 04:51:07;;;;;;;0.20;0.20;;;;;;;13.35;49.68;95625.22;4996694;28;20837;-63
2023/01/23 04:53:34;;;;;;;0.00;0.00;;;;;;;13.43;50.04;95627.38;4996958;28;20482;-64
2023/01/23 04:56:02;;;;;;;0.00;0.00;;;;;;;12.68;51.79;95619.69;4993671;28;20437;-67
2023/01/23 04:58:30;;;;;;;0.07;0.07;;;;;;;13.41;50.53;95623.41;4994435;28;20461;-66
2023/01/23 05:01:07;;;;;;;0.87;0.40;;;;;;;13.74;49.66;95623.06;4992862;28;20521;-68
2023/01/23 05:03:36;;;;;;;2.47;1.30;;;;;;;13.89;49.53;95628.38;4976593;28;20446;-66
2023/01/23 05:06:03;;;;;;;0.00;0.00;;;;;;;14.07;49.00;95641.88;4991901;28;20446;-68
2023/01/23 05:08:30;;;;;;;0.00;0.00;;;;;;;13.68;50.18;95634.63;4976492;28;20495;-66
2023/01/23 05:11:16;;;;;;;0.00;0.00;;;;;;;13.67;49.58;95633.00;4984881;28;20453;-71
2023/01/23 05:13:43;;;;;;;0.00;0.00;;;;;;;13.52;50.27;95614.53;4970753;28;20447;-66
2023/01/23 05:16:11;;;;;;;0.10;0.10;;;;;;;13.28;50.96;95619.41;4987756;28;20496;-68
2023/01/23 05:19:10;;;;;;;0.00;0.00;;;;;;;13.62;50.07;95625.09;4989615;28;20441;-68
2023/01/23 05:21:37;;;;;;;0.37;0.37;;;;;;;13.82;49.02;95617.28;4974906;28;20566;-69
2023/01/23 05:24:09;;;;;;;0.70;0.53;;;;;;;13.88;49.29;95624.16;4988557;28;20496;-67
2023/01/23 05:26:36;;;;;;;0.37;0.37;;;;;;;14.33;47.98;95632.25;4984298;28;20453;-66
2023/01/23 05:29:03;;;;;;;0.10;0.10;;;;;;;14.17;48.62;95633.22;4990253;28;21027;-63
2023/01/23 05:31:33;;;;;;;0.17;0.17;;;;;;;13.89;49.05;95641.53;4987553;28;20481;-64
2023/01/23 05:34:19;;;;;;;0.00;0.00;;;;;;;14.24;48.79;95633.78;4987328;28;20569;-64
2023/01/23 05:36:46;;;;;;;0.07;0.07;;;;;;;13.82;49.28;95641.00;4987885;28;21043;-69
2023/01/23 05:39:14;;;;;;;0.03;0.03;;;;;;;14.27;48.11;95643.81;4970656;28;20462;-72
2023/01/23 05:41:42;;;;;;;0.63;0.33;;;;;;;14.08;48.22;95655.88;4984677;28;20453;-68
2023/01/23 05:44:29;;;;;;;0.00;0.00;;;;;;;14.20;48.14;95664.31;4984703;28;20453;-70
2023/01/23 05:47:07;;;;;;;0.10;0.10;;;;;;;14.59;47.50;95651.53;4977986;28;20454;-70
2023/01/23 05:49:34;;;;;;;0.13;0.13;;;;;;;14.23;48.69;95656.69;4967743;28;20451;-61
2023/01/23 05:52:01;;;;;;;0.43;0.43;;;;;;;14.23;48.54;95671.75;4978410;28;20956;-66
2023/01/23 05:54:28;;;;;;;0.20;0.20;;;;;;;14.34;47.89;95664.69;4985906;28;20507;-64
2023/01/23 05:56:55;;;;;;;0.20;0.20;;;;;;;14.35;47.56;95671.53;4985440;28;20444;-68
2023/01/23 05:59:34;;;;;;;2.33;0.40;;;;;;;14.55;47.42;95672.38;4974287;28;20461;-65
2023/01/23 06:02:12;;;;;;;0.00;0.00;;;;;;;14.33;47.73;95677.06;4985979;28;20475;-68
2023/01/23 06:04:58;;;;;;;0.50;0.50;;;;;;;13.98;47.97;95676.88;4988170;28;20617;-69
2023/01/23 06:07:41;;;;;;;0.50;0.50;;;;;;;13.65;50.42;95678.06;4976252;28;20492;-62
2023/01/23 06:10:09;;;;;;;0.47;0.47;;;;;;;14.08;48.39;95690.13;4986771;28;20438;-63
2023/01/23 06:12:36;;;;;;;4.03;2.20;;;;;;;14.50;47.25;95690.81;4978575;28;20454;-64
2023/01/23 06:15:04;;;;;;;0.40;0.40;;;;;;;14.54;47.07;95697.19;4988340;28;20453;-66
2023/01/23 06:17:30;;;;;;;0.30;0.30;;;;;;;14.28;47.54;95705.25;4991128;28;20546;-69
2023/01/23 06:19:57;;;;;;;0.30;0.30;;;;;;;14.21;47.88;95689.66;4974323;28;20509;-67
2023/01/23 06:22:24;;;;;;;0.43;0.43;;;;;;;14.63;47.30;95700.88;4970331;28;20438;-72
2023/01/23 06:25:00;;;;;;;0.30;0.23;;;;;;;14.54;46.72;95702.44;4972839;28;20535;-71
2023/01/23 06:27:27;;;;;;;0.00;0.00;;;;;;;14.53;47.02;95702.69;4992765;28;20465;-70
2023/01/23 06:29:54;;;;;;;0.90;0.77;;;;;;;14.17;49.63;95712.31;4990692;28;20577;-64
2023/01/23 06:32:22;;;;;;;0.90;0.83;;;;;;;13.21;50.15;95721.44;4982097;28;20552;-66
2023/01/23 06:34:50;;;;;;;0.10;0.10;;;;;;;13.36;49.87;95733.97;4969341;28;20443;-69
2023/01/23 06:37:17;;;;;;;0.00;0.00;;;;;;;13.42;50.10;95719.75;4970121;28;20499;-65
2023/01/23 06:39:44;;;;;;;0.53;0.50;;;;;;;13.28;50.53;95723.88;4987954;28;20541;-69
2023/01/23 06:42:13;;;;;;;0.93;0.27;;;;;;;13.92;49.22;95725.38;4980265;28;20447;-69
2023/01/23 06:44:44;;;;;;;1.90;0.60;;;;;;;13.81;49.32;95734.25;4969650;28;20446;-68
2023/01/23 06:47:12;;;;;;;0.10;0.10;;;;;;;13.72;49.73;95731.28;4986571;28;20814;-66
2023/01/23 06:49:41;;;;;;;0.10;0.10;;;;;;;13.50;49.98;95738.53;4971291;28;20486;-70
2023/01/23 06:52:08;;;;;;;0.33;0.30;;;;;;;13.81;49.93;95731.63;4975305;28;20481;-66
2023/01/23 06:54:36;;;;;;;0.50;0.47;;;;;;;14.02;49.08;95733.31;4988161;28;20438;-68
2023/01/23 06:57:04;;;;;;;0.07;0.07;;;;;;;14.06;49.13;95737.81;4971974;28;20442;-74
2023/01/23 06:59:32;;;;;;;0.40;0.40;;;;;;;13.58;50.19;95755.69;4972037;28;20443;-66
2023/01/23 07:02:02;;;;;;;0.10;0.10;;;;;;;13.85;50.22;95744.00;4972149;28;20450;-70
2023/01/23 07:04:38;;;;;;;0.83;0.83;;;;;;;13.98;49.77;95745.41;4992174;28;20445;-69
2023/01/23 07:07:05;;;;;;;0.30;0.30;;;;;;;13.76;49.52;95750.00;4990829;28;20545;-66
2023/01/23 07:09:32;;;;;;;0.10;0.10;;;;;;;13.16;50.99;95759.06;4991997;28;20487;-65
2023/01/23 07:12:13;;;;;;;0.30;0.30;;;;;;;13.23;51.25;95752.78;4990571;28;20462;-69
2023/01/23 07:14:40;;;;;;;0.47;0.47;;;;;;;13.05;50.67;95762.63;4989887;28;20453;-66
2023/01/23 07:17:09;;;;;;;0.47;0.47;;;;;;;13.02;51.28;95768.41;4971753;28;20455;-70
2023/01/23 07:19:36;;;;;;;0.10;0.10;;;;;;;13.28;50.75;95766.00;4984620;28;20996;-67
2023/01/23 07:22:06;;;;;;;0.27;0.27;;;;;;;13.25;51.02;95763.88;4977551;28;20458;-65
2023/01/23 07:24:33;;;;;;;0.00;0.00;;;;;;;13.64;50.10;95759.94;4990685;28;20456;-67
2023/01/23 07:27:00;;;;;;;0.60;0.60;;;;;;;13.25;50.81;95763.88;4989367;28;20508;-66
2023/01/23 07:29:27;;;;;;;0.60;0.60;;;;;;;13.12;51.89;95759.78;4991476;28;20864;-72
2023/01/23 07:31:54;;;;;;;2.20;1.17;;;;;;;13.31;51.35;95770.75;4992142;28;20469;-68
2023/01/23 07:34:21;;;;;;;0.10;0.10;;;;;;;13.27;51.04;95772.28;4995485;28;20481;-68
2023/01/23 07:36:48;;;;;;;0.37;0.37;;;;;;;13.08;51.70;95772.66;4992307;28;20457;-71
2023/01/23 07:39:16;;;;;;;0.20;0.20;;;;;;;13.11;52.21;95777.44;4991458;28;20442;-66
2023/01/23 07:41:42;;;;;;;0.47;0.47;;;;;;;13.07;51.90;95784.22;4990976;28;20486;-64
2023/01/23 07:44:19;;;;;;;0.50;0.50;;;;;;;13.41;51.87;95782.16;4991267;28;20512;-65
2023/01/23 07:46:47;;;;;;;0.00;0.00;;;;;;;13.27;51.95;95785.44;4991046;28;20515;-71
2023/01/23 07:49:14;;;;;;;0.37;0.37;;;;;;;13.17;52.14;95786.94;4991254;28;20496;-68
2023/01/23 07:51:41;;;;;;;1.43;1.33;;;;;;;13.15;52.11;95783.78;4991364;28;20836;-64
2023/01/23 07:54:08;;;;;;;1.20;1.10;;;;;;;13.54;51.43;95802.03;4991045;28;20825;-70
2023/01/23 07:56:35;;;;;;;0.00;0.00;;;;;;;13.57;51.42;95793.59;4991065;28;20453;-69
2023/01/23 07:59:02;;;;;;;1.37;0.97;;;;;;;13.63;50.88;95792.63;4990839;28;20968;-73
2023/01/23 08:01:29;;;;;;;0.10;0.10;;;;;;;13.25;52.11;95800.72;4990939;28;20437;-72
2023/01/23 08:03:56;;;;;;;0.63;0.63;;;;;;;13.12;52.54;95799.25;4990482;28;20984;-69
2023/01/23 08:06:24;;;;;;;0.10;0.10;;;;;;;12.92;52.66;95806.91;4990557;28;20468;-68
2023/01/23 08:08:51;;;;;;;0.00;0.00;;;;;;;12.85;52.52;95808.94;4990828;28;21089;-65
2023/01/23 08:11:18;;;;;;;0.20;0.20;;;;;;;13.02;52.50;95813.13;4990735;28;20476;-67
2023/01/23 08:13:48;;;;;;;9.13;2.47;;;;;;;13.35;51.55;95813.97;4990483;28;20472;-70
2023/01/23 08:16:15;;;;;;;0.83;0.83;;;;;;;13.28;51.74;95816.81;4990576;28;20988;-67
2023/01/23 08:18:42;;;;;;;0.20;0.20;;;;;;;13.46;50.72;95805.09;4990581;28;20511;-70
2023/01/23 08:21:09;;;;;;;2.07;0.87;;;;;;;13.59;50.98;95817.84;4990711;28;20515;-70
2023/01/23 08:23:36;;;;;;;0.20;0.20;;;;;;;13.12;50.65;95830.84;4988910;28;20481;-66
2023/01/23 08:26:05;;;;;;;0.20;0.20;;;;;;;13.59;49.74;95831.03;4990313;28;20496;-67
2023/01/23 08:28:32;;;;;;;0.17;0.17;;;;;;;13.52;49.29;95835.72;4990224;28;20583;-67
2023/01/23 08:31:00;;;;;;;0.00;0.00;;;;;;;12.57;51.25;95838.88;4989819;28;20496;-65
2023/01/23 08:33:28;;;;;;;0.10;0.10;;;;;;;13.12;49.75;95846.63;4990661;28;20481;-71
2023/01/23 08:35:57;;;;;;;0.00;0.00;;;;;;;12.92;50.24;95841.91;4989768;28;20467;-70
2023/01/23 08:38:25;;;;;;;0.37;0.37;;;;;;;12.70;50.07;95849.03;4989789;28;20450;-69
2023/01/23 08:40:54;;;;;;;0.00;0.00;;;;;;;12.76;49.83;95836.72;4989710;28;20506;-69
2023/01/23 08:43:21;;;;;;;0.00;0.00;;;;;;;12.32;50.86;95846.44;4989518;28;20525;-63
2023/01/23 08:45:51;;;;;;;0.00;0.00;;;;;;;12.98;49.94;95840.94;4989708;28;20468;-68
2023/01/23 08:48:19;;;;;;;0.00;0.00;;;;;;;13.60;47.82;95837.88;4989969;28;20473;-68
2023/01/23 08:50:46;;;;;;;0.00;0.00;;;;;;;13.31;48.13;95823.38;4989427;28;21054;-72
2023/01/23 08:53:13;;;;;;;0.20;0.20;;;;;;;13.34;48.41;95833.44;4989679;28;20498;-68
2023/01/23 08:55:41;;;;;;;0.00;0.00;;;;;;;13.11;49.05;95852.94;4989144;28;20572;-65
2023/01/23 08:58:11;;;;;;;0.00;0.00;;;;;;;13.78;47.56;95855.91;4989977;28;20457;-69
2023/01/23 09:00:39;;;;;;;0.43;0.43;;;;;;;13.17;48.11;95850.09;4991621;28;20453;-62
2023/01/23 09:03:06;;;;;;;0.60;0.43;;;;;;;13.57;47.43;95854.97;4990173;28;21024;-67
2023/01/23 09:05:36;;;;;;;0.10;0.10;;;;;;;13.58;47.54;95861.03;4990205;28;20528;-65
2023/01/23 09:08:03;;;;;;;0.20;0.20;;;;;;;13.35;47.39;95850.81;4990090;28;21074;-64
2023/01/23 09:10:30;;;;;;;0.00;0.00;;;;;;;13.15;47.67;95856.69;4989373;28;20510;-70
2023/01/23 09:12:57;;;;;;;0.10;0.10;;;;;;;13.16;47.46;95869.56;4989878;28;20503;-71
2023/01/23 09:15:24;;;;;;;0.00;0.00;;;;;;;13.11;47.58;95861.63;4988260;28;20449;-65
2023/01/23 09:17:51;;;;;;;0.23;0.23;;;;;;;13.54;47.05;95857.31;4990220;28;20870;-70
2023/01/23 09:20:18;;;;;;;0.00;0.00;;;;;;;13.51;46.95;95857.81;4987644;28;20968;-67
2023/01/23 09:22:45;;;;;;;0.33;0.33;;;;;;;13.61;47.13;95871.06;4990074;28;20511;-69
2023/01/23 09:25:13;;;;;;;0.20;0.20;;;;;;;13.45;47.14;95885.16;4989425;28;20570;-65
2023/01/23 09:27:40;;;;;;;7.10;0.60;;;;;;;13.76;46.20;95868.53;4990122;28;20444;-61
2023/01/23 09:30:07;;;;;;;0.47;0.43;;;;;;;13.61;46.44;95863.94;4989999;28;20563;-65
2023/01/23 09:32:34;;;;;;;0.00;0.00;;;;;;;13.55;47.07;95861.53;4991452;28;20902;-71
2023/01/23 09:35:01;;;;;;;0.37;0.37;;;;;;;13.89;45.63;95855.75;5000239;28;20531;-69
2023/01/23 09:37:58;;;;;;;0.10;0.10;;;;;;;13.39;47.12;95857.19;5002534;28;20531;-62
2023/01/23 09:40:21;;;;;;;0.30;0.30;;;;;;;13.93;45.97;95842.88;4988145;28;20577;-69
2023/01/23 09:42:52;;;;;;;0.00;0.00;;;;;;;13.70;46.37;95851.13;4994244;28;20457;-70
2023/01/23 09:45:24;;;;;;;0.13;0.13;;;;;;;13.68;46.38;95856.66;4990681;28;20994;-70
2023/01/23 09:48:14;;;;;;;0.00;0.00;;;;;;;13.02;47.54;95851.75;4989763;28;20788;-66
2023/01/23 09:50:53;;;;;;;0.50;0.50;;;;;;;13.50;46.80;95837.78;4991607;28;20449;-65
2023/01/23 09:53:24;;;;;;;0.00;0.00;;;;;;;14.05;45.98;95836.38;4982710;28;21098;-69
2023/01/23 09:56:20;;;;;;;0.00;0.00;;;;;;;13.89;46.13;95833.88;4993037;28;20433;-69
2023/01/23 09:59:18;;;;;;;0.00;0.00;;;;;;;13.93;46.25;95835.78;4993556;28;20461;-67
2023/01/23 10:01:45;;;;;;;2.00;0.50;;;;;;;13.75;46.68;95835.34;4992450;28;20964;-63
2023/01/23 10:04:17;;;;;;;0.00;0.00;;;;;;;13.16;47.72;95832.75;4993094;28;20477;-67
2023/01/23 10:07:05;;;;;;;0.00;0.00;;;;;;;13.35;47.81;95840.28;4992923;28;20517;-67
2023/01/23 10:09:51;;;;;;;0.00;0.00;;;;;;;13.93;46.38;95842.88;4982322;28;20497;-69
2023/01/23 10:12:43;;;;;;;0.10;0.10;;;;;;;14.17;46.07;95844.09;4993151;28;20536;-72
2023/01/23 10:15:19;;;;;;;0.20;0.20;;;;;;;13.62;47.43;95851.56;4992816;28;20453;-70
2023/01/23 10:17:57;;;;;;;0.43;0.43;;;;;;;12.95;49.19;95841.44;4993070;28;20441;-70
2023/01/23 10:20:54;;;;;;;0.60;0.60;;;;;;;12.88;48.88;95846.06;4992461;28;20449;-64
2023/01/23 10:23:33;;;;;;;0.50;0.43;;;;;;;13.06;49.19;95847.63;4992931;28;20449;-63
2023/01/23 10:26:02;;;;;;;0.10;0.10;;;;;;;13.29;48.88;95838.63;4999413;28;20445;-65
2023/01/23 10:28:40;;;;;;;0.23;0.23;;;;;;;12.88;49.07;95838.19;4992793;28;20477;-70
2023/01/23 10:31:18;;;;;;;0.00;0.00;;;;;;;13.02;49.16;95843.88;4991927;28;20477;-75
2023/01/23 10:33:54;;;;;;;0.10;0.10;;;;;;;12.76;49.68;95837.53;4980993;28;20552;-65
2023/01/23 10:36:31;;;;;;;0.00;0.00;;;;;;;13.13;48.53;95843.78;4991822;28;20461;-70
2023/01/23 10:39:25;;;;;;;0.00;0.00;;;;;;;13.30;49.15;95842.88;4992653;28;20442;-72
2023/01/23 10:41:52;;;;;;;0.73;0.40;;;;;;;12.89;49.35;95839.00;4979831;28;20990;-71
2023/01/23 10:44:27;;;;;;;0.57;0.57;;;;;;;13.09;48.51;95832.16;4992552;28;20457;-71
2023/01/23 10:47:01;;;;;;;0.50;0.50;;;;;;;13.22;48.54;95841.47;4990667;28;20458;-65
2023/01/23 10:49:30;;;;;;;2.73;2.50;;;;;;;12.64;50.42;95834.25;4992102;28;20480;-69
2023/01/23 10:51:57;;;;;;;0.53;0.53;;;;;;;13.44;48.21;95836.16;4992109;28;20535;-65
2023/01/23 10:54:26;;;;;;;0.20;0.20;;;;;;;13.28;49.30;95829.16;4992686;28;20512;-68
2023/01/23 10:57:01;;;;;;;1.07;0.37;;;;;;;13.31;48.71;95831.28;4992519;28;20503;-67
2023/01/23 10:59:49;;;;;;;0.17;0.17;;;;;;;12.83;50.04;95832.88;4991636;28;20442;-68
2023/01/23 11:02:20;;;;;;;0.40;0.27;;;;;;;13.21;49.67;95824.09;4991877;28;20450;-68
2023/01/23 11:04:50;;;;;;;0.93;0.47;;;;;;;12.55;50.16;95830.47;4991624;28;20454;-67
2023/01/23 11:07:18;;;;;;;0.50;0.50;;;;;;;12.90;50.17;95833.47;4996099;28;20476;-66
2023/01/23 11:09:47;;;;;;;0.13;0.13;;;;;;;13.35;48.83;95835.00;4991759;28;20500;-66
2023/01/23 11:12:34;;;;;;;1.33;0.77;;;;;;;12.64;50.33;95836.88;4991776;28;21305;-73
2023/01/23 11:15:20;;;;;;;0.00;0.00;;;;;;;12.66;50.52;95832.16;4991726;28;20536;-68
2023/01/23 11:17:49;;;;;;;0.00;0.00;;;;;;;13.12;49.33;95842.16;4992492;28;20450;-65
2023/01/23 11:20:38;;;;;;;0.20;0.20;;;;;;;12.48;50.77;95848.22;4991243;28;20480;-67
2023/01/23 11:23:09;;;;;;;0.00;0.00;;;;;;;12.81;51.03;95845.47;4991920;28;20465;-66
2023/01/23 11:25:39;;;;;;;0.10;0.10;;;;;;;12.75;50.93;95835.97;4991389;28;20968;-64
2023/01/23 11:28:32;;;;;;;0.00;0.00;;;;;;;13.12;50.21;95842.16;4992105;28;20474;-67
2023/01/23 11:31:10;;;;;;;0.13;0.13;;;;;;;12.97;50.15;95833.28;4991771;28;20501;-70
2023/01/23 11:33:58;;;;;;;0.00;0.00;;;;;;;13.44;49.34;95834.31;4992743;28;20511;-70
2023/01/23 11:36:34;;;;;;;0.27;0.27;;;;;;;13.70;48.48;95832.69;4991018;28;20444;-64
2023/01/23 11:39:25;;;;;;;0.50;0.20;;;;;;;13.36;49.07;95831.34;4991445;28;20477;-70
2023/01/23 11:41:52;;;;;;;0.00;0.00;;;;;;;13.29;49.20;95830.75;4978501;28;20501;-72
2023/01/23 11:44:21;;;;;;;0.00;0.00;;;;;;;13.26;49.46;95831.25;4991874;28;20806;-69
2023/01/23 11:47:00;;;;;;;0.10;0.10;;;;;;;13.25;49.69;95827.81;4991907;28;20495;-68
2023/01/23 11:49:33;;;;;;;0.10;0.10;;;;;;;13.34;48.93;95828.19;4991292;28;20807;-68
2023/01/23 11:52:09;;;;;;;0.97;0.77;;;;;;;12.59;50.63;95836.78;4991354;28;20452;-67
2023/01/23 11:55:00;;;;;;;0.00;0.00;;;;;;;12.68;50.79;95830.06;4990841;28;20512;-70
2023/01/23 11:58:03;;;;;;;0.53;0.53;;;;;;;12.98;50.03;95840.94;4990809;28;20463;-72
2023/01/23 12:01:02;;;;;;;0.00;0.00;;;;;;;12.98;50.13;95840.94;4991051;28;20449;-65
2023/01/23 12:03:38;;;;;;;0.20;0.20;;;;;;;12.76;50.99;95834.91;4991263;28;20445;-71